sensor_id;sensor_type;location;lat;lon;timestamp;temperature;humidity
38854;DHT22;24606;51.992;4.198;2023-09-19T00:00:46;19.60;76.00
38854;DHT22;24606;51.992;4.198;2023-09-19T00:05:49;20.30;72.60
38854;DHT22;24606;51.992;4.198;2023-09-19T00:10:54;20.30;71.90
38854;DHT22;24606;51.992;4.198;2023-09-19T00:15:56;20.10;83.80
38854;DHT22;24606;51.992;4.198;2023-09-19T00:21:00;19.80;72.70
38854;DHT22;24606;51.992;4.198;2023-09-19T00:26:03;19.80;75.70
38854;DHT22;24606;51.992;4.198;2023-09-19T00:31:07;19.40;74.60
38854;DHT22;24606;51.992;4.198;2023-09-19T00:36:10;20.30;82.60
38854;DHT22;24606;51.992;4.198;2023-09-19T00:41:14;19.70;81.90
38854;DHT22;24606;51.992;4.198;2023-09-19T00:46:16;20.00;80.10
38854;DHT22;24606;51.992;4.198;2023-09-19T00:51:18;19.60;73.70
38854;DHT22;24606;51.992;4.198;2023-09-19T00:56:23;20.20;78.40
38854;DHT22;24606;51.992;4.198;2023-09-19T01:01:25;20.50;74.30
38854;DHT22;24606;51.992;4.198;2023-09-19T01:06:27;20.30;79.30
38854;DHT22;24606;51.992;4.198;2023-09-19T01:11:35;19.60;80.10
38854;DHT22;24606;51.992;4.198;2023-09-19T01:16:44;19.30;87.60
38854;DHT22;24606;51.992;4.198;2023-09-19T01:21:57;19.70;83.60
38854;DHT22;24606;51.992;4.198;2023-09-19T01:27:25;19.50;84.70
38854;DHT22;24606;51.992;4.198;2023-09-19T01:32:31;19.80;84.70
38854;DHT22;24606;51.992;4.198;2023-09-19T01:37:33;19.90;76.40
38854;DHT22;24606;51.992;4.198;2023-09-19T01:42:40;19.40;76.10
38854;DHT22;24606;51.992;4.198;2023-09-19T01:47:49;19.10;83.20
38854;DHT22;24606;51.992;4.198;2023-09-19T01:52:56;20.00;74.60
38854;DHT22;24606;51.992;4.198;2023-09-19T01:58:05;19.00;84.30
38854;DHT22;24606;51.992;4.198;2023-09-19T02:03:11;20.10;79.00
38854;DHT22;24606;51.992;4.198;2023-09-19T02:08:16;20.00;78.80
38854;DHT22;24606;51.992;4.198;2023-09-19T02:13:23;20.10;76.90
38854;DHT22;24606;51.992;4.198;2023-09-19T02:18:30;20.00;79.10
38854;DHT22;24606;51.992;4.198;2023-09-19T02:23:32;19.50;75.60
38854;DHT22;24606;51.992;4.198;2023-09-19T02:28:34;19.80;79.90
38854;DHT22;24606;51.992;4.198;2023-09-19T02:33:37;19.80;80.30
38854;DHT22;24606;51.992;4.198;2023-09-19T02:38:39;19.40;76.60
38854;DHT22;24606;51.992;4.198;2023-09-19T02:43:41;19.30;83.20
38854;DHT22;24606;51.992;4.198;2023-09-19T02:48:45;19.30;80.20
38854;DHT22;24606;51.992;4.198;2023-09-19T02:53:47;19.80;82.20
38854;DHT22;24606;51.992;4.198;2023-09-19T03:15:30;19.40;81.60
38854;DHT22;24606;51.992;4.198;2023-09-19T03:20:32;19.00;84.80
38854;DHT22;24606;51.992;4.198;2023-09-19T03:25:34;19.30;85.60
38854;DHT22;24606;51.992;4.198;2023-09-19T03:30:37;19.10;81.60
38854;DHT22;24606;51.992;4.198;2023-09-19T03:35:40;19.00;86.00
38854;DHT22;24606;51.992;4.198;2023-09-19T03:40:43;19.10;86.20
38854;DHT22;24606;51.992;4.198;2023-09-19T03:45:47;19.30;86.40
38854;DHT22;24606;51.992;4.198;2023-09-19T03:50:49;20.10;81.70
38854;DHT22;24606;51.992;4.198;2023-09-19T03:55:51;20.00;75.20
38854;DHT22;24606;51.992;4.198;2023-09-19T04:00:56;19.80;76.10
38854;DHT22;24606;51.992;4.198;2023-09-19T04:05:58;19.80;74.20
38854;DHT22;24606;51.992;4.198;2023-09-19T04:11:00;20.30;75.70
38854;DHT22;24606;51.992;4.198;2023-09-19T04:16:03;19.60;78.40
38854;DHT22;24606;51.992;4.198;2023-09-19T04:21:07;19.20;76.70
38854;DHT22;24606;51.992;4.198;2023-09-19T04:26:09;20.10;73.00
38854;DHT22;24606;51.992;4.198;2023-09-19T04:31:13;19.60;75.80
38854;DHT22;24606;51.992;4.198;2023-09-19T04:36:15;19.50;74.40
38854;DHT22;24606;51.992;4.198;2023-09-19T04:41:17;20.30;74.20
38854;DHT22;24606;51.992;4.198;2023-09-19T04:46:20;19.30;75.80
38854;DHT22;24606;51.992;4.198;2023-09-19T04:51:22;19.30;78.90
38854;DHT22;24606;51.992;4.198;2023-09-19T04:56:24;20.00;75.30
38854;DHT22;24606;51.992;4.198;2023-09-19T05:01:27;19.70;75.40
38854;DHT22;24606;51.992;4.198;2023-09-19T05:06:29;19.50;81.70
38854;DHT22;24606;51.992;4.198;2023-09-19T05:11:31;18.90;82.50
38854;DHT22;24606;51.992;4.198;2023-09-19T05:16:35;19.60;79.10
38854;DHT22;24606;51.992;4.198;2023-09-19T05:21:37;19.20;80.30
38854;DHT22;24606;51.992;4.198;2023-09-19T05:26:39;19.00;81.10
38854;DHT22;24606;51.992;4.198;2023-09-19T05:31:42;19.10;85.20
38854;DHT22;24606;51.992;4.198;2023-09-19T05:36:44;18.90;85.10
38854;DHT22;24606;51.992;4.198;2023-09-19T05:41:46;19.20;83.10
38854;DHT22;24606;51.992;4.198;2023-09-19T05:46:50;18.90;85.80
38854;DHT22;24606;51.992;4.198;2023-09-19T05:51:52;19.10;84.90
38854;DHT22;24606;51.992;4.198;2023-09-19T05:56:55;18.80;84.90
38854;DHT22;24606;51.992;4.198;2023-09-19T06:02:00;18.60;89.40
38854;DHT22;24606;51.992;4.198;2023-09-19T06:07:02;19.60;81.40
38854;DHT22;24606;51.992;4.198;2023-09-19T06:12:05;18.40;83.20
38854;DHT22;24606;51.992;4.198;2023-09-19T06:17:08;19.00;83.80
38854;DHT22;24606;51.992;4.198;2023-09-19T06:22:11;18.50;86.50
38854;DHT22;24606;51.992;4.198;2023-09-19T06:27:13;19.70;79.40
38854;DHT22;24606;51.992;4.198;2023-09-19T06:32:16;19.40;78.00
38854;DHT22;24606;51.992;4.198;2023-09-19T06:37:18;19.10;79.70
38854;DHT22;24606;51.992;4.198;2023-09-19T06:42:19;18.30;87.50
38854;DHT22;24606;51.992;4.198;2023-09-19T06:47:24;18.70;85.90
38854;DHT22;24606;51.992;4.198;2023-09-19T06:52:26;18.30;88.00
38854;DHT22;24606;51.992;4.198;2023-09-19T06:57:28;18.60;74.80
38854;DHT22;24606;51.992;4.198;2023-09-19T07:02:32;18.60;78.90
38854;DHT22;24606;51.992;4.198;2023-09-19T07:07:34;19.30;78.90
38854;DHT22;24606;51.992;4.198;2023-09-19T07:12:36;19.70;83.00
38854;DHT22;24606;51.992;4.198;2023-09-19T07:17:39;19.80;83.10
38854;DHT22;24606;51.992;4.198;2023-09-19T07:22:41;19.30;87.90
38854;DHT22;24606;51.992;4.198;2023-09-19T07:27:43;19.70;87.20
38854;DHT22;24606;51.992;4.198;2023-09-19T07:32:48;19.70;85.80
38854;DHT22;24606;51.992;4.198;2023-09-19T07:37:50;19.70;87.90
38854;DHT22;24606;51.992;4.198;2023-09-19T07:42:52;19.30;92.50
38854;DHT22;24606;51.992;4.198;2023-09-19T07:47:55;19.10;91.20
38854;DHT22;24606;51.992;4.198;2023-09-19T07:52:57;19.90;87.50
38854;DHT22;24606;51.992;4.198;2023-09-19T07:58:00;19.70;91.20
38854;DHT22;24606;51.992;4.198;2023-09-19T08:03:05;20.90;78.10
38854;DHT22;24606;51.992;4.198;2023-09-19T08:08:09;20.70;86.80
38854;DHT22;24606;51.992;4.198;2023-09-19T08:13:11;19.80;90.60
38854;DHT22;24606;51.992;4.198;2023-09-19T08:18:16;19.80;90.00
38854;DHT22;24606;51.992;4.198;2023-09-19T08:23:19;20.50;84.80
38854;DHT22;24606;51.992;4.198;2023-09-19T08:28:21;19.00;92.40
38854;DHT22;24606;51.992;4.198;2023-09-19T08:33:26;18.50;95.30
38854;DHT22;24606;51.992;4.198;2023-09-19T08:38:28;18.70;96.80
38854;DHT22;24606;51.992;4.198;2023-09-19T08:43:30;19.00;95.00
38854;DHT22;24606;51.992;4.198;2023-09-19T08:48:39;19.90;90.40
38854;DHT22;24606;51.992;4.198;2023-09-19T08:53:50;19.30;92.10
38854;DHT22;24606;51.992;4.198;2023-09-19T08:58:55;21.00;81.60
38854;DHT22;24606;51.992;4.198;2023-09-19T09:03:59;19.90;91.10
38854;DHT22;24606;51.992;4.198;2023-09-19T09:09:02;19.80;91.60
38854;DHT22;24606;51.992;4.198;2023-09-19T09:14:06;20.70;90.00
38854;DHT22;24606;51.992;4.198;2023-09-19T09:19:12;19.60;92.40
38854;DHT22;24606;51.992;4.198;2023-09-19T09:24:26;19.30;94.20
38854;DHT22;24606;51.992;4.198;2023-09-19T09:29:42;20.50;89.50
38854;DHT22;24606;51.992;4.198;2023-09-19T09:34:47;19.90;92.60
38854;DHT22;24606;51.992;4.198;2023-09-19T09:39:50;20.40;85.80
38854;DHT22;24606;51.992;4.198;2023-09-19T09:45:12;20.00;90.40
38854;DHT22;24606;51.992;4.198;2023-09-19T09:50:23;20.20;90.40
38854;DHT22;24606;51.992;4.198;2023-09-19T09:55:29;19.50;94.00
38854;DHT22;24606;51.992;4.198;2023-09-19T10:00:52;19.20;95.60
38854;DHT22;24606;51.992;4.198;2023-09-19T10:06:00;19.00;95.90
38854;DHT22;24606;51.992;4.198;2023-09-19T10:11:18;20.10;92.90
38854;DHT22;24606;51.992;4.198;2023-09-19T10:16:20;21.00;87.80
38854;DHT22;24606;51.992;4.198;2023-09-19T10:21:24;19.80;94.40
38854;DHT22;24606;51.992;4.198;2023-09-19T10:26:31;19.50;95.50
38854;DHT22;24606;51.992;4.198;2023-09-19T10:31:35;20.00;93.70
38854;DHT22;24606;51.992;4.198;2023-09-19T10:36:44;19.90;94.10
38854;DHT22;24606;51.992;4.198;2023-09-19T10:41:50;19.70;95.10
38854;DHT22;24606;51.992;4.198;2023-09-19T10:46:54;20.20;92.40
38854;DHT22;24606;51.992;4.198;2023-09-19T10:52:00;20.70;92.40
38854;DHT22;24606;51.992;4.198;2023-09-19T10:57:03;20.30;92.70
38854;DHT22;24606;51.992;4.198;2023-09-19T11:02:16;19.70;95.50
38854;DHT22;24606;51.992;4.198;2023-09-19T11:07:20;20.00;93.50
38854;DHT22;24606;51.992;4.198;2023-09-19T11:12:49;20.20;94.10
38854;DHT22;24606;51.992;4.198;2023-09-19T11:17:52;19.90;94.60
38854;DHT22;24606;51.992;4.198;2023-09-19T11:28:34;20.10;93.20
38854;DHT22;24606;51.992;4.198;2023-09-19T11:33:39;20.10;93.70
38854;DHT22;24606;51.992;4.198;2023-09-19T11:39:02;20.30;94.40
38854;DHT22;24606;51.992;4.198;2023-09-19T11:44:33;19.90;96.60
38854;DHT22;24606;51.992;4.198;2023-09-19T11:49:40;20.20;93.70
38854;DHT22;24606;51.992;4.198;2023-09-19T11:54:43;20.40;94.20
38854;DHT22;24606;51.992;4.198;2023-09-19T11:59:49;19.80;96.50
38854;DHT22;24606;51.992;4.198;2023-09-19T12:04:54;20.40;95.60
38854;DHT22;24606;51.992;4.198;2023-09-19T12:10:03;20.60;94.10
38854;DHT22;24606;51.992;4.198;2023-09-19T12:15:08;20.70;94.30
38854;DHT22;24606;51.992;4.198;2023-09-19T12:20:11;20.50;94.10
38854;DHT22;24606;51.992;4.198;2023-09-19T12:25:15;20.90;92.10
38854;DHT22;24606;51.992;4.198;2023-09-19T12:30:19;21.10;91.00
38854;DHT22;24606;51.992;4.198;2023-09-19T12:35:29;20.40;94.50
38854;DHT22;24606;51.992;4.198;2023-09-19T12:40:31;20.90;92.50
38854;DHT22;24606;51.992;4.198;2023-09-19T12:45:37;20.30;95.80
38854;DHT22;24606;51.992;4.198;2023-09-19T12:51:03;19.90;96.60
38854;DHT22;24606;51.992;4.198;2023-09-19T12:56:06;20.50;95.70
38854;DHT22;24606;51.992;4.198;2023-09-19T13:01:15;20.00;98.90
38854;DHT22;24606;51.992;4.198;2023-09-19T13:06:35;19.90;99.30
38854;DHT22;24606;51.992;4.198;2023-09-19T13:11:41;19.60;99.00
38854;DHT22;24606;51.992;4.198;2023-09-19T13:17:00;20.10;97.10
38854;DHT22;24606;51.992;4.198;2023-09-19T13:22:36;19.90;97.20
38854;DHT22;24606;51.992;4.198;2023-09-19T13:27:40;19.80;97.50
38854;DHT22;24606;51.992;4.198;2023-09-19T13:32:44;19.00;99.90
38854;DHT22;24606;51.992;4.198;2023-09-19T13:37:47;19.40;99.90
38854;DHT22;24606;51.992;4.198;2023-09-19T13:42:52;19.20;99.90
38854;DHT22;24606;51.992;4.198;2023-09-19T13:47:55;19.00;99.90
38854;DHT22;24606;51.992;4.198;2023-09-19T13:52:58;18.70;99.90
38854;DHT22;24606;51.992;4.198;2023-09-19T13:58:01;18.90;99.90
38854;DHT22;24606;51.992;4.198;2023-09-19T14:03:04;18.90;99.90
38854;DHT22;24606;51.992;4.198;2023-09-19T14:08:06;19.30;99.90
38854;DHT22;24606;51.992;4.198;2023-09-19T14:13:08;19.30;99.90
38854;DHT22;24606;51.992;4.198;2023-09-19T14:18:12;19.40;99.90
38854;DHT22;24606;51.992;4.198;2023-09-19T14:23:13;19.20;99.90
38854;DHT22;24606;51.992;4.198;2023-09-19T14:28:15;19.20;99.90
38854;DHT22;24606;51.992;4.198;2023-09-19T14:33:19;19.50;99.90
38854;DHT22;24606;51.992;4.198;2023-09-19T14:38:21;18.90;99.90
38854;DHT22;24606;51.992;4.198;2023-09-19T14:43:22;18.10;99.90
38854;DHT22;24606;51.992;4.198;2023-09-19T14:48:26;18.20;99.90
38854;DHT22;24606;51.992;4.198;2023-09-19T14:53:28;18.00;99.90
38854;DHT22;24606;51.992;4.198;2023-09-19T14:58:30;17.90;99.90
38854;DHT22;24606;51.992;4.198;2023-09-19T15:03:34;18.70;99.90
38854;DHT22;24606;51.992;4.198;2023-09-19T15:08:37;18.30;99.90
38854;DHT22;24606;51.992;4.198;2023-09-19T15:13:40;19.40;99.90
38854;DHT22;24606;51.992;4.198;2023-09-19T15:18:45;18.10;99.90
38854;DHT22;24606;51.992;4.198;2023-09-19T15:23:48;18.10;99.90
38854;DHT22;24606;51.992;4.198;2023-09-19T15:28:49;18.30;99.90
38854;DHT22;24606;51.992;4.198;2023-09-19T15:33:53;18.50;99.90
38854;DHT22;24606;51.992;4.198;2023-09-19T15:38:59;18.30;99.90
38854;DHT22;24606;51.992;4.198;2023-09-19T15:44:02;18.30;99.90
38854;DHT22;24606;51.992;4.198;2023-09-19T15:49:05;18.60;99.90
38854;DHT22;24606;51.992;4.198;2023-09-19T15:54:11;18.90;99.90
38854;DHT22;24606;51.992;4.198;2023-09-19T15:59:14;18.60;99.90
38854;DHT22;24606;51.992;4.198;2023-09-19T16:04:17;19.10;99.90
38854;DHT22;24606;51.992;4.198;2023-09-19T16:09:19;19.40;99.90
38854;DHT22;24606;51.992;4.198;2023-09-19T16:14:21;18.40;99.90
38854;DHT22;24606;51.992;4.198;2023-09-19T16:19:24;18.50;99.90
38854;DHT22;24606;51.992;4.198;2023-09-19T16:24:26;18.80;99.90
38854;DHT22;24606;51.992;4.198;2023-09-19T16:29:29;18.10;99.90
38854;DHT22;24606;51.992;4.198;2023-09-19T16:34:32;18.50;99.90
38854;DHT22;24606;51.992;4.198;2023-09-19T16:39:34;18.70;99.90
38854;DHT22;24606;51.992;4.198;2023-09-19T16:44:37;18.20;99.90
38854;DHT22;24606;51.992;4.198;2023-09-19T16:49:40;18.30;99.90
38854;DHT22;24606;51.992;4.198;2023-09-19T16:54:42;18.50;99.90
38854;DHT22;24606;51.992;4.198;2023-09-19T16:59:44;18.20;99.90
38854;DHT22;24606;51.992;4.198;2023-09-19T17:04:47;17.80;99.90
38854;DHT22;24606;51.992;4.198;2023-09-19T17:09:49;17.70;99.90
38854;DHT22;24606;51.992;4.198;2023-09-19T17:14:51;17.60;99.90
38854;DHT22;24606;51.992;4.198;2023-09-19T17:19:54;17.80;99.90
38854;DHT22;24606;51.992;4.198;2023-09-19T17:24:56;17.60;99.90
38854;DHT22;24606;51.992;4.198;2023-09-19T17:29:58;17.70;99.90
38854;DHT22;24606;51.992;4.198;2023-09-19T17:35:01;17.40;99.90
38854;DHT22;24606;51.992;4.198;2023-09-19T17:40:04;17.60;99.90
38854;DHT22;24606;51.992;4.198;2023-09-19T17:45:08;18.30;99.90
38854;DHT22;24606;51.992;4.198;2023-09-19T17:50:11;18.20;99.90
38854;DHT22;24606;51.992;4.198;2023-09-19T17:55:14;17.90;99.90
38854;DHT22;24606;51.992;4.198;2023-09-19T18:00:17;18.50;99.90
38854;DHT22;24606;51.992;4.198;2023-09-19T18:05:20;18.00;99.90
38854;DHT22;24606;51.992;4.198;2023-09-19T18:10:22;17.50;99.90
38854;DHT22;24606;51.992;4.198;2023-09-19T18:15:26;17.70;99.90
38854;DHT22;24606;51.992;4.198;2023-09-19T18:20:36;18.00;99.90
38854;DHT22;24606;51.992;4.198;2023-09-19T18:25:40;17.70;99.90
38854;DHT22;24606;51.992;4.198;2023-09-19T18:30:42;18.10;99.90
38854;DHT22;24606;51.992;4.198;2023-09-19T18:35:45;18.00;99.90
38854;DHT22;24606;51.992;4.198;2023-09-19T18:40:47;17.70;99.90
38854;DHT22;24606;51.992;4.198;2023-09-19T18:45:57;18.30;99.90
38854;DHT22;24606;51.992;4.198;2023-09-19T18:51:04;18.10;99.90
38854;DHT22;24606;51.992;4.198;2023-09-19T18:56:08;18.50;99.90
38854;DHT22;24606;51.992;4.198;2023-09-19T19:01:12;18.00;99.90
38854;DHT22;24606;51.992;4.198;2023-09-19T19:06:18;17.90;99.90
38854;DHT22;24606;51.992;4.198;2023-09-19T19:11:22;18.00;99.90
38854;DHT22;24606;51.992;4.198;2023-09-19T19:16:26;17.90;99.90
38854;DHT22;24606;51.992;4.198;2023-09-19T19:21:30;18.50;99.90
38854;DHT22;24606;51.992;4.198;2023-09-19T19:26:32;18.40;99.90
38854;DHT22;24606;51.992;4.198;2023-09-19T19:31:35;18.30;99.90
38854;DHT22;24606;51.992;4.198;2023-09-19T19:36:39;18.40;99.90
38854;DHT22;24606;51.992;4.198;2023-09-19T19:41:41;18.80;99.90
38854;DHT22;24606;51.992;4.198;2023-09-19T19:46:44;18.50;99.90
38854;DHT22;24606;51.992;4.198;2023-09-19T19:51:47;19.20;99.90
38854;DHT22;24606;51.992;4.198;2023-09-19T19:56:50;18.90;99.90
38854;DHT22;24606;51.992;4.198;2023-09-19T20:01:52;18.60;99.90
38854;DHT22;24606;51.992;4.198;2023-09-19T20:06:55;18.40;99.90
38854;DHT22;24606;51.992;4.198;2023-09-19T20:11:57;18.70;99.90
38854;DHT22;24606;51.992;4.198;2023-09-19T20:17:00;18.60;99.90
38854;DHT22;24606;51.992;4.198;2023-09-19T20:22:04;18.40;99.90
38854;DHT22;24606;51.992;4.198;2023-09-19T20:27:09;18.40;99.90
38854;DHT22;24606;51.992;4.198;2023-09-19T20:32:13;18.40;99.90
38854;DHT22;24606;51.992;4.198;2023-09-19T20:37:19;18.50;99.90
38854;DHT22;24606;51.992;4.198;2023-09-19T20:42:21;18.70;99.90
38854;DHT22;24606;51.992;4.198;2023-09-19T20:47:23;19.30;99.90
38854;DHT22;24606;51.992;4.198;2023-09-19T20:52:27;18.70;99.90
38854;DHT22;24606;51.992;4.198;2023-09-19T20:57:29;18.70;99.90
38854;DHT22;24606;51.992;4.198;2023-09-19T21:02:31;18.70;99.90
38854;DHT22;24606;51.992;4.198;2023-09-19T21:07:34;18.50;99.90
38854;DHT22;24606;51.992;4.198;2023-09-19T21:12:36;19.30;99.90
38854;DHT22;24606;51.992;4.198;2023-09-19T21:17:38;18.70;99.90
38854;DHT22;24606;51.992;4.198;2023-09-19T21:22:44;18.30;99.90
38854;DHT22;24606;51.992;4.198;2023-09-19T21:27:46;18.40;99.90
38854;DHT22;24606;51.992;4.198;2023-09-19T21:32:48;18.30;99.90
38854;DHT22;24606;51.992;4.198;2023-09-19T21:37:51;18.60;99.90
38854;DHT22;24606;51.992;4.198;2023-09-19T21:42:53;18.40;99.90
38854;DHT22;24606;51.992;4.198;2023-09-19T21:47:55;18.60;99.90
38854;DHT22;24606;51.992;4.198;2023-09-19T21:52:58;18.60;99.90
38854;DHT22;24606;51.992;4.198;2023-09-19T21:58:01;19.10;99.90
38854;DHT22;24606;51.992;4.198;2023-09-19T22:03:03;19.00;99.90
38854;DHT22;24606;51.992;4.198;2023-09-19T22:08:09;18.80;99.90
38854;DHT22;24606;51.992;4.198;2023-09-19T22:13:11;18.70;99.90
38854;DHT22;24606;51.992;4.198;2023-09-19T22:18:16;18.80;99.90
38854;DHT22;24606;51.992;4.198;2023-09-19T22:23:24;18.90;99.90
38854;DHT22;24606;51.992;4.198;2023-09-19T22:28:27;19.30;99.90
38854;DHT22;24606;51.992;4.198;2023-09-19T22:33:29;19.30;99.90
38854;DHT22;24606;51.992;4.198;2023-09-19T22:38:33;19.40;99.90
38854;DHT22;24606;51.992;4.198;2023-09-19T22:43:36;19.00;99.90
38854;DHT22;24606;51.992;4.198;2023-09-19T22:48:45;18.90;99.90
38854;DHT22;24606;51.992;4.198;2023-09-19T22:53:49;19.60;99.90
38854;DHT22;24606;51.992;4.198;2023-09-19T22:58:58;19.90;99.90
38854;DHT22;24606;51.992;4.198;2023-09-19T23:04:00;19.10;99.90
38854;DHT22;24606;51.992;4.198;2023-09-19T23:09:18;19.20;99.90
38854;DHT22;24606;51.992;4.198;2023-09-19T23:14:24;19.50;99.90
38854;DHT22;24606;51.992;4.198;2023-09-19T23:19:33;19.00;99.90
38854;DHT22;24606;51.992;4.198;2023-09-19T23:24:36;19.30;99.90
38854;DHT22;24606;51.992;4.198;2023-09-19T23:29:41;19.50;99.90
38854;DHT22;24606;51.992;4.198;2023-09-19T23:34:43;18.80;99.90
38854;DHT22;24606;51.992;4.198;2023-09-19T23:39:48;19.00;99.90
38854;DHT22;24606;51.992;4.198;2023-09-19T23:44:51;19.00;99.90
38854;DHT22;24606;51.992;4.198;2023-09-19T23:49:55;19.10;99.90
38854;DHT22;24606;51.992;4.198;2023-09-19T23:54:59;19.00;99.90
